St. Paul, Alberta

Past 24 Hour Conditions

Date / Time
(MST)
Conditions Temp
(°F)
Humidity
(%)
Dew Point
(°F)
Wind
(mph)
Pressure
(inches)
Vis
(mi)
Wind Chill
28 November 2014
23:00 N/A -10 80 -14 NNW 13 N/A N/A -30
22:00 N/A -10 81 -15 NNW 12 N/A N/A -30
21:00 N/A -11 81 -15 NNW 9 N/A N/A -29
20:00 N/A -13 82 -17 NW 7 N/A N/A -30
19:00 N/A -14   83 -18 WNW 8 N/A N/A -31
18:00 N/A -11 85 -14 NNW 6 N/A N/A -26
17:00 N/A -9 82 -13 NNW 7 N/A N/A -25
16:00 N/A -9 81 -14 N 10 N/A N/A -27
15:00 N/A -7 79 -12 NNW 9 N/A N/A -24
14:00 N/A -6 81 -10 NNW 12 N/A N/A -25
13:00 N/A -5   80 -9 N 6 N/A N/A -17
12:00 N/A -5   82 -9 NNE 10 N/A N/A -22
11:00 N/A -5   81 -9 NNE 10 N/A N/A -22
10:00 N/A -6 82 -10 NE 10 N/A N/A -23
9:00 N/A -6 83 -10 NE 12 N/A N/A -25
8:00 N/A -7 84 -10 NNE 8 N/A N/A -22
7:00 N/A -7 83 -11 NNE 10 N/A N/A -25
6:00 N/A -7 83 -11 NE 8 N/A N/A -23
5:00 N/A -7 83 -11 NE 10 N/A N/A -24
4:00 N/A -7 83 -11 NE 8 N/A N/A -22
3:00 N/A -7 83 -10 NNE 9 N/A N/A -23
2:00 N/A -6 83 -10 NNE 9 N/A N/A -23
1:00 N/A -5   82 -10 NE 12 N/A N/A -25
00:00 N/A -5   82 -9 NE 15 N/A N/A -26
27 November 2014
23:00 N/A -5   83 -9 NE 13 N/A N/A -25
N/A Not available
↑ Highest temperature
↓ Lowest temperature
* Value not significant.

If you require additional historical weather information, please visit Climate Data Online.

Date modified: